Time;durP1;ratioP1;P1;durP2;ratioP2;P2;SDS_P1;SDS_P2;PMS_P1;PMS_P2;Temp;Humidity;BMP_temperature;BMP_pressure;BME280_temperature;BME280_humidity;BME280_pressure;Samples;Min_cycle;Max_cycle;Signal;HPM_P1;HPM_P2
2021/09/01 00:00:04;;;;;;;28.70;14.45;;;;;;;17.13;75.71;102116.06;5018388;28;20045;-60
2021/09/01 00:02:39;;;;;;;23.48;13.82;;;;;;;17.09;75.98;102112.28;5036169;28;20052;-62
2021/09/01 00:05:08;;;;;;;25.55;15.00;;;;;;;16.94;76.82;102109.97;5035789;28;20057;-61
2021/09/01 00:07:35;;;;;;;30.50;15.65;;;;;;;16.87;77.20;102112.38;5035751;28;20057;-61
2021/09/01 00:10:05;;;;;;;38.83;15.38;;;;;;;16.88;77.52;102125.97;5034454;28;20125;-60
2021/09/01 00:12:33;;;;;;;25.63;13.82;;;;;;;16.77;78.19;102118.25;5036293;28;20056;-61
2021/09/01 00:15:01;;;;;;;28.80;14.70;;;;;;;16.83;77.97;102115.00;5055589;28;20052;-64
2021/09/01 00:17:29;;;;;;;32.97;15.88;;;;;;;16.91;77.59;102116.19;5054045;28;20053;-64
2021/09/01 00:19:56;;;;;;;26.85;13.82;;;;;;;17.02;77.26;102116.66;5055646;28;20060;-63
2021/09/01 00:22:23;;;;;;;31.95;15.05;;;;;;;17.11;76.49;102118.34;5055839;28;20051;-65
2021/09/01 00:24:51;;;;;;;31.77;15.13;;;;;;;17.00;77.09;102118.97;5055709;28;20055;-64
2021/09/01 00:27:18;;;;;;;26.88;14.40;;;;;;;16.78;78.02;102128.22;5055392;28;20053;-64
2021/09/01 00:29:45;;;;;;;32.80;15.43;;;;;;;17.05;77.20;102122.41;5055277;28;20071;-64
2021/09/01 00:32:13;;;;;;;26.75;14.60;;;;;;;16.90;77.60;102114.50;5055572;28;20053;-65
2021/09/01 00:34:40;;;;;;;36.20;14.73;;;;;;;16.75;78.13;102118.53;5055299;28;20052;-64
2021/09/01 00:37:07;;;;;;;35.35;15.77;;;;;;;16.64;78.91;102117.19;5053958;28;20514;-64
2021/09/01 00:39:34;;;;;;;26.63;15.68;;;;;;;16.69;78.98;102117.06;5053636;28;20543;-64
2021/09/01 00:42:03;;;;;;;34.80;17.13;;;;;;;16.48;80.11;102113.19;5054085;28;20056;-66
2021/09/01 00:44:31;;;;;;;32.50;15.32;;;;;;;16.54;79.66;102119.44;5054932;28;20056;-66
2021/09/01 00:46:58;;;;;;;31.23;15.77;;;;;;;16.76;79.11;102122.97;5055236;28;20045;-61
2021/09/01 00:49:27;;;;;;;30.98;16.83;;;;;;;16.53;79.79;102126.13;5054690;28;20060;-61
2021/09/01 00:51:55;;;;;;;28.38;16.55;;;;;;;16.32;80.78;102116.66;5053885;28;20052;-65
2021/09/01 00:54:25;;;;;;;32.45;17.38;;;;;;;16.30;80.97;102110.59;5053360;28;20044;-64
2021/09/01 00:56:55;;;;;;;29.05;16.10;;;;;;;16.23;81.60;102121.34;5053715;28;20049;-66
2021/09/01 00:59:29;;;;;;;32.55;17.73;;;;;;;16.36;81.13;102126.00;5053036;28;20045;-65
2021/09/01 01:01:59;;;;;;;28.70;16.35;;;;;;;16.31;81.34;102128.91;5053153;28;20056;-65
2021/09/01 01:04:28;;;;;;;31.50;16.27;;;;;;;16.30;81.41;102116.97;5054887;28;20511;-64
2021/09/01 01:07:03;;;;;;;30.02;16.05;;;;;;;16.44;80.68;102116.91;5054676;28;20057;-65
2021/09/01 01:09:34;;;;;;;28.63;16.90;;;;;;;16.46;80.63;102123.81;5054520;28;20049;-65
2021/09/01 01:12:12;;;;;;;27.55;15.93;;;;;;;16.42;80.67;102121.97;5054686;28;20055;-66
2021/09/01 01:14:39;;;;;;;28.85;17.05;;;;;;;16.39;80.66;102117.00;5014939;28;20054;-65
2021/09/01 01:17:08;;;;;;;35.95;17.77;;;;;;;16.32;81.14;102134.16;5014830;28;20205;-61
2021/09/01 01:19:41;;;;;;;32.10;16.70;;;;;;;16.13;82.47;102125.19;5014625;28;20041;-65
2021/09/01 01:22:14;;;;;;;31.20;17.73;;;;;;;16.28;81.56;102124.00;5013633;28;20054;-66
2021/09/01 01:24:51;;;;;;;34.42;17.42;;;;;;;16.35;81.22;102118.81;5014487;28;20293;-65
2021/09/01 01:27:22;;;;;;;28.10;15.75;;;;;;;16.48;80.46;102115.97;5014346;28;20050;-66
2021/09/01 01:29:50;;;;;;;31.67;17.15;;;;;;;16.39;80.76;102111.44;5014149;28;20050;-64
2021/09/01 01:32:18;;;;;;;28.63;16.80;;;;;;;16.26;81.85;102110.41;5014698;28;20049;-66
2021/09/01 01:34:45;;;;;;;33.75;17.65;;;;;;;16.17;81.70;102112.31;5014518;28;20058;-65
2021/09/01 01:37:12;;;;;;;34.35;18.15;;;;;;;16.09;82.54;102115.84;5013341;28;20046;-65
2021/09/01 01:39:39;;;;;;;35.40;18.30;;;;;;;16.09;82.56;102117.81;5014717;28;20402;-68
2021/09/01 01:42:07;;;;;;;33.92;19.52;;;;;;;16.05;82.68;102123.19;5014511;28;20049;-65
2021/09/01 01:44:34;;;;;;;29.45;17.95;;;;;;;15.99;83.14;102110.53;5012719;28;20058;-65
2021/09/01 01:47:03;;;;;;;31.67;18.70;;;;;;;16.15;82.69;102113.75;5014258;28;20057;-65
2021/09/01 01:49:30;;;;;;;33.80;19.65;;;;;;;16.02;82.59;102117.44;5014002;28;20188;-65
2021/09/01 01:51:57;;;;;;;32.40;19.25;;;;;;;16.18;82.27;102122.28;5012687;28;20058;-65
2021/09/01 01:54:25;;;;;;;28.83;19.30;;;;;;;15.98;83.23;102124.75;5013108;28;20053;-64
2021/09/01 01:56:52;;;;;;;38.38;20.50;;;;;;;15.92;83.29;102118.50;5014427;28;20054;-60
2021/09/01 01:59:19;;;;;;;32.42;19.85;;;;;;;15.89;83.73;102115.53;4995647;28;20062;-60
2021/09/01 02:01:46;;;;;;;37.95;21.70;;;;;;;15.90;83.87;102117.19;5014195;28;20471;-61
2021/09/01 02:04:14;;;;;;;37.95;23.67;;;;;;;15.75;84.53;102108.09;5012847;28;20050;-61
2021/09/01 02:06:42;;;;;;;43.35;21.80;;;;;;;15.94;83.77;102121.78;5014243;28;20053;-60
2021/09/01 02:09:09;;;;;;;35.15;21.98;;;;;;;15.88;83.90;102111.13;5014141;28;20057;-61
2021/09/01 02:11:36;;;;;;;39.20;22.45;;;;;;;15.62;84.80;102128.38;5013913;28;20049;-62
2021/09/01 02:14:03;;;;;;;34.17;22.17;;;;;;;15.67;85.12;102119.13;5043055;28;20048;-65
2021/09/01 02:16:30;;;;;;;35.50;23.20;;;;;;;15.71;84.28;102126.50;5053704;28;20055;-65
2021/09/01 02:18:58;;;;;;;33.85;19.90;;;;;;;15.83;84.53;102125.13;5051363;28;20053;-65
2021/09/01 02:21:25;;;;;;;29.45;22.02;;;;;;;15.95;83.65;102128.19;5053516;28;20056;-65
2021/09/01 02:23:52;;;;;;;33.28;20.98;;;;;;;16.06;83.02;102129.53;5053683;28;20052;-65
2021/09/01 02:26:19;;;;;;;36.55;21.92;;;;;;;16.08;82.33;102135.63;5053577;28;20049;-65
2021/09/01 02:28:47;;;;;;;36.53;20.83;;;;;;;15.82;83.40;102137.38;5053085;28;20045;-65
2021/09/01 02:31:14;;;;;;;35.35;21.08;;;;;;;15.79;84.26;102127.72;5053334;28;20041;-64
2021/09/01 02:33:41;;;;;;;30.75;21.20;;;;;;;15.94;83.42;102130.13;5052385;28;20059;-63
2021/09/01 02:36:09;;;;;;;35.22;20.42;;;;;;;15.98;83.12;102135.88;5054076;28;20049;-67
2021/09/01 02:38:36;;;;;;;35.67;21.13;;;;;;;16.12;82.49;102133.84;5055934;28;20068;-64
2021/09/01 02:41:03;;;;;;;36.45;20.00;;;;;;;16.31;81.27;102134.47;5057361;28;20492;-60
2021/09/01 02:43:30;;;;;;;37.20;22.55;;;;;;;15.99;82.43;102137.53;5057545;28;20441;-64
2021/09/01 02:45:57;;;;;;;35.22;21.95;;;;;;;15.99;82.48;102129.19;5038951;28;20049;-65
2021/09/01 02:48:25;;;;;;;35.15;21.15;;;;;;;15.96;82.65;102129.81;5057141;28;20056;-65
2021/09/01 02:50:52;;;;;;;27.13;21.52;;;;;;;15.91;82.60;102129.94;5057448;28;20057;-65
2021/09/01 02:53:20;;;;;;;36.15;23.00;;;;;;;15.66;84.10;102128.56;5057262;28;20048;-65
2021/09/01 02:55:47;;;;;;;38.83;22.65;;;;;;;15.77;83.65;102133.59;5057476;28;20049;-64
2021/09/01 02:58:15;;;;;;;28.15;20.02;;;;;;;15.77;84.03;102133.59;5057078;28;20685;-60
2021/09/01 03:00:42;;;;;;;36.70;23.23;;;;;;;15.82;83.71;102140.16;5055343;28;20052;-61
2021/09/01 03:03:10;;;;;;;39.67;22.20;;;;;;;15.67;84.03;102139.38;5056950;28;20052;-60
2021/09/01 03:05:37;;;;;;;33.00;22.45;;;;;;;15.82;83.54;102143.75;5057092;28;20049;-60
2021/09/01 03:08:06;;;;;;;38.13;23.90;;;;;;;15.75;83.63;102135.88;5056992;28;20049;-64
2021/09/01 03:10:34;;;;;;;30.20;22.77;;;;;;;15.76;83.46;102136.66;5056854;28;20511;-65
2021/09/01 03:13:01;;;;;;;35.00;22.77;;;;;;;15.70;83.75;102132.38;5050346;28;20037;-66
2021/09/01 03:15:29;;;;;;;36.17;23.85;;;;;;;15.53;84.83;102146.91;5036736;28;20064;-65
2021/09/01 03:17:56;;;;;;;32.75;22.88;;;;;;;15.67;84.10;102130.25;5035595;28;20068;-66
2021/09/01 03:20:24;;;;;;;36.90;24.13;;;;;;;15.72;83.78;102133.72;5036399;28;20041;-60
2021/09/01 03:22:51;;;;;;;36.47;22.42;;;;;;;15.81;83.57;102127.41;5035722;28;20045;-60
2021/09/01 03:25:18;;;;;;;36.53;21.95;;;;;;;15.69;83.79;102133.53;5036784;28;20076;-60
2021/09/01 03:27:46;;;;;;;38.80;25.88;;;;;;;15.57;83.98;102142.38;5036694;28;20060;-60
2021/09/01 03:30:13;;;;;;;40.55;25.27;;;;;;;15.41;85.14;102131.94;5035080;28;20053;-64
2021/09/01 03:32:40;;;;;;;37.33;24.13;;;;;;;15.45;85.21;102136.56;5036589;28;20060;-65
2021/09/01 03:35:08;;;;;;;35.10;23.60;;;;;;;15.48;85.00;102135.13;5001983;28;20054;-65
2021/09/01 03:37:36;;;;;;;37.22;24.85;;;;;;;15.62;84.49;102124.81;5035285;28;20053;-65
2021/09/01 03:40:04;;;;;;;40.25;24.52;;;;;;;15.48;84.33;102130.38;5034909;28;20053;-64
2021/09/01 03:42:31;;;;;;;38.55;23.63;;;;;;;15.60;84.27;102130.66;5035395;28;20041;-65
2021/09/01 03:44:58;;;;;;;38.88;23.98;;;;;;;15.51;84.32;102115.06;5036459;28;20054;-64
2021/09/01 03:47:26;;;;;;;34.72;22.67;;;;;;;15.62;84.47;102124.81;5035230;28;20052;-66
2021/09/01 03:49:53;;;;;;;35.30;21.40;;;;;;;15.68;83.73;102132.69;5035719;28;20052;-66
2021/09/01 03:52:21;;;;;;;38.50;22.75;;;;;;;15.49;83.90;102137.59;5035978;28;20045;-65
2021/09/01 03:54:48;;;;;;;36.40;21.50;;;;;;;15.58;83.75;102124.59;5036322;28;20053;-65
2021/09/01 03:57:15;;;;;;;34.08;20.98;;;;;;;15.80;82.83;102132.13;5035972;28;20050;-65
2021/09/01 03:59:42;;;;;;;30.95;21.73;;;;;;;15.57;83.36;102133.22;5034433;28;20547;-65
2021/09/01 04:02:10;;;;;;;34.15;20.70;;;;;;;15.62;83.41;102133.94;5034166;28;20056;-65
2021/09/01 04:04:37;;;;;;;31.70;20.85;;;;;;;15.47;83.68;102136.25;5035989;28;20515;-65
2021/09/01 04:07:04;;;;;;;29.83;20.83;;;;;;;15.51;83.38;102134.50;5034281;28;20669;-65
2021/09/01 04:09:32;;;;;;;35.03;21.33;;;;;;;15.41;83.81;102135.53;5035605;28;20056;-65
2021/09/01 04:12:04;;;;;;;33.90;21.80;;;;;;;15.39;83.82;102146.13;5030166;28;20053;-65
2021/09/01 04:14:32;;;;;;;34.20;21.65;;;;;;;15.31;84.17;102137.66;5053164;28;20064;-65
2021/09/01 04:16:59;;;;;;;33.40;21.10;;;;;;;15.33;84.39;102130.69;5036259;28;20056;-65
2021/09/01 04:19:26;;;;;;;30.10;20.42;;;;;;;15.30;84.47;102136.88;5054857;28;20048;-65
2021/09/01 04:21:53;;;;;;;35.45;21.60;;;;;;;15.41;83.56;102143.06;5055557;28;20045;-64
2021/09/01 04:24:21;;;;;;;33.08;22.77;;;;;;;15.18;84.55;102138.53;5055559;28;20060;-65
2021/09/01 04:26:48;;;;;;;33.22;21.48;;;;;;;15.23;84.58;102133.69;5055794;28;20056;-62
2021/09/01 04:29:16;;;;;;;37.53;22.45;;;;;;;15.19;84.70;102131.81;5053784;28;20067;-61
2021/09/01 04:31:43;;;;;;;37.95;21.73;;;;;;;15.22;84.87;102129.25;5055626;28;20049;-65
2021/09/01 04:34:11;;;;;;;35.78;22.80;;;;;;;15.21;84.96;102133.16;5055392;28;20061;-65
2021/09/01 04:36:38;;;;;;;32.70;23.33;;;;;;;15.08;85.49;102145.09;5055466;28;20511;-66
2021/09/01 04:39:05;;;;;;;33.05;22.63;;;;;;;15.20;85.30;102139.84;5055211;28;20132;-66
2021/09/01 04:41:32;;;;;;;35.85;23.95;;;;;;;15.23;84.50;102153.13;5055166;28;20049;-65
2021/09/01 04:44:00;;;;;;;36.13;24.73;;;;;;;15.21;84.91;102151.78;5055264;28;20045;-65
2021/09/01 04:46:27;;;;;;;39.15;23.67;;;;;;;15.27;84.38;102164.44;5055275;28;20056;-65
2021/09/01 04:48:55;;;;;;;36.20;22.92;;;;;;;15.25;84.33;102164.75;5053440;28;20049;-66
2021/09/01 04:51:22;;;;;;;32.75;23.48;;;;;;;15.31;83.84;102157.94;5055180;28;20041;-66
2021/09/01 04:53:49;;;;;;;37.42;23.25;;;;;;;15.23;84.08;102161.44;5055058;28;20060;-65
2021/09/01 04:56:17;;;;;;;33.38;21.88;;;;;;;15.37;83.80;102156.69;5060546;28;20052;-65
2021/09/01 04:58:44;;;;;;;34.45;23.20;;;;;;;15.32;83.76;102158.75;5054165;28;20061;-64
2021/09/01 05:01:11;;;;;;;35.60;22.27;;;;;;;15.32;83.87;102156.00;5052915;28;20040;-65
2021/09/01 05:03:39;;;;;;;33.55;22.38;;;;;;;15.41;83.36;102159.72;5055017;28;20053;-64
2021/09/01 05:06:06;;;;;;;37.03;23.30;;;;;;;15.35;83.29;102158.97;5054784;28;20049;-65
2021/09/01 05:08:34;;;;;;;37.67;22.88;;;;;;;15.28;83.52;102154.94;5037138;28;20056;-61
2021/09/01 05:11:01;;;;;;;35.65;23.15;;;;;;;15.11;84.26;102161.16;5054631;28;20056;-61
2021/09/01 05:13:28;;;;;;;47.80;23.67;;;;;;;15.05;84.73;102151.25;5043871;28;20058;-62
2021/09/01 05:15:58;;;;;;;38.67;24.17;;;;;;;15.15;84.47;102155.81;5017649;28;20053;-61
2021/09/01 05:18:26;;;;;;;34.10;23.50;;;;;;;15.09;85.08;102157.84;5034707;28;20049;-63
2021/09/01 05:20:57;;;;;;;37.28;24.52;;;;;;;14.99;85.17;102163.63;5034014;28;20401;-65
2021/09/01 05:23:30;;;;;;;36.72;23.73;;;;;;;15.15;84.87;102153.03;5033393;28;20045;-65
2021/09/01 05:26:00;;;;;;;35.00;23.15;;;;;;;15.08;84.48;102156.19;5034756;28;20182;-64
2021/09/01 05:28:32;;;;;;;37.40;24.30;;;;;;;14.95;85.43;102154.25;5034487;28;20053;-65
2021/09/01 05:31:04;;;;;;;35.35;24.92;;;;;;;15.03;85.02;102166.59;5034316;28;20057;-65
2021/09/01 05:33:33;;;;;;;37.10;22.65;;;;;;;15.20;84.58;102170.38;5033280;28;20056;-65
2021/09/01 05:36:01;;;;;;;33.40;22.55;;;;;;;15.23;83.99;102177.28;5034029;28;20041;-65
2021/09/01 05:38:30;;;;;;;36.70;23.55;;;;;;;15.06;84.54;102180.69;5011802;28;20052;-65
2021/09/01 05:40:57;;;;;;;35.03;22.33;;;;;;;15.01;84.98;102171.63;5018310;28;20069;-65
2021/09/01 05:43:25;;;;;;;43.38;23.65;;;;;;;14.99;84.66;102180.25;5045949;28;20050;-65
2021/09/01 05:45:52;;;;;;;36.05;23.25;;;;;;;15.06;84.63;102180.69;5030234;28;20045;-65
2021/09/01 05:48:21;;;;;;;38.22;24.40;;;;;;;15.05;84.71;102190.13;5034369;28;20433;-65
2021/09/01 05:50:53;;;;;;;38.80;23.58;;;;;;;14.95;85.08;102182.00;5034301;28;20057;-60
2021/09/01 05:53:22;;;;;;;36.15;22.90;;;;;;;14.93;85.23;102180.66;5034202;28;20493;-60
2021/09/01 05:55:52;;;;;;;38.80;22.77;;;;;;;15.15;84.42;102186.34;5034098;28;20064;-64
2021/09/01 05:58:20;;;;;;;34.42;21.27;;;;;;;15.30;83.18;102186.84;5034384;28;20049;-64
2021/09/01 06:00:55;;;;;;;36.10;21.42;;;;;;;15.18;83.56;102189.31;5006362;28;20058;-65
2021/09/01 06:03:32;;;;;;;40.97;23.83;;;;;;;15.13;84.12;102188.59;5014320;28;20054;-65
2021/09/01 06:06:02;;;;;;;35.15;22.23;;;;;;;15.29;83.56;102187.94;5045363;28;20080;-65
2021/09/01 06:08:34;;;;;;;36.90;22.63;;;;;;;15.28;83.48;102194.66;5014131;28;20050;-65
2021/09/01 06:11:04;;;;;;;43.35;21.98;;;;;;;15.32;83.11;102186.53;5011005;28;20057;-66
2021/09/01 06:13:31;;;;;;;33.30;21.88;;;;;;;15.47;82.76;102175.94;5028080;28;20034;-59
2021/09/01 06:16:03;;;;;;;37.78;22.85;;;;;;;15.17;82.71;102190.44;5023605;28;20072;-61
2021/09/01 06:18:30;;;;;;;35.40;22.13;;;;;;;15.21;83.45;102185.09;5023556;28;20065;-60
2021/09/01 06:20:58;;;;;;;35.47;21.67;;;;;;;15.23;83.36;102180.88;5031939;28;20058;-66
2021/09/01 06:23:26;;;;;;;30.77;21.88;;;;;;;15.23;82.91;102178.09;5014884;28;20060;-61
2021/09/01 06:25:53;;;;;;;40.72;22.45;;;;;;;15.17;83.33;102176.53;5031074;28;20045;-61
2021/09/01 06:28:20;;;;;;;31.90;22.42;;;;;;;15.18;83.24;102166.28;5016795;28;20049;-63
2021/09/01 06:30:48;;;;;;;40.03;21.95;;;;;;;15.22;83.25;102173.66;4996896;28;20054;-68
2021/09/01 06:33:15;;;;;;;39.42;23.17;;;;;;;15.29;82.82;102178.81;5030932;28;20076;-63
2021/09/01 06:35:42;;;;;;;34.20;22.13;;;;;;;15.34;84.68;102178.72;5028072;28;20053;-61
2021/09/01 06:38:09;;;;;;;32.80;21.60;;;;;;;15.42;82.84;102170.50;5031431;28;20053;-60
2021/09/01 06:40:37;;;;;;;33.33;21.65;;;;;;;15.20;82.73;102167.59;5033150;28;20056;-62
2021/09/01 06:43:04;;;;;;;38.42;22.70;;;;;;;15.28;83.19;102169.66;5032071;28;20460;-60
2021/09/01 06:45:31;;;;;;;29.83;20.65;;;;;;;15.50;82.49;102171.72;5025851;28;20037;-62
2021/09/01 06:47:58;;;;;;;38.83;21.02;;;;;;;15.68;81.05;102170.75;5016101;28;20054;-61
2021/09/01 06:50:26;;;;;;;32.72;19.35;;;;;;;15.84;80.07;102163.72;5013887;28;20038;-61
2021/09/01 06:52:55;;;;;;;34.08;20.20;;;;;;;15.74;80.15;102178.66;5021217;28;20056;-64
2021/09/01 06:55:22;;;;;;;32.30;21.25;;;;;;;15.55;80.89;102177.19;5021431;28;20046;-61
2021/09/01 06:57:49;;;;;;;33.22;20.83;;;;;;;15.59;81.15;102176.22;5013967;28;20148;-62
2021/09/01 07:00:19;;;;;;;27.75;19.27;;;;;;;15.88;79.85;102169.47;5026394;28;20046;-61
2021/09/01 07:02:46;;;;;;;35.97;20.33;;;;;;;15.95;79.50;102172.63;5036958;28;20056;-61
2021/09/01 07:05:14;;;;;;;30.17;19.60;;;;;;;16.12;79.02;102172.78;5025033;28;20052;-61
2021/09/01 07:07:43;;;;;;;30.70;19.02;;;;;;;16.13;78.52;102163.28;5032411;28;20042;-63
2021/09/01 07:10:12;;;;;;;32.88;20.23;;;;;;;16.25;78.18;102169.94;5032383;28;20049;-63
2021/09/01 07:12:40;;;;;;;41.42;19.92;;;;;;;16.38;77.26;102162.66;5013030;28;20046;-63
2021/09/01 07:15:09;;;;;;;31.58;19.92;;;;;;;16.29;77.87;102172.91;5000129;28;20054;-62
2021/09/01 07:17:38;;;;;;;31.92;19.67;;;;;;;16.29;78.27;102157.03;5032098;28;20060;-63
2021/09/01 07:20:07;;;;;;;35.42;20.15;;;;;;;16.22;78.01;102170.56;5018325;28;20049;-61
2021/09/01 07:22:34;;;;;;;30.08;20.58;;;;;;;16.19;78.17;102159.25;5013462;28;20053;-61
2021/09/01 07:25:03;;;;;;;33.17;20.50;;;;;;;16.14;78.08;102163.00;5028328;28;20049;-61
2021/09/01 07:27:31;;;;;;;32.45;19.95;;;;;;;16.19;78.48;102153.69;5036283;28;20547;-62
2021/09/01 07:29:58;;;;;;;30.95;19.90;;;;;;;16.29;77.55;102153.44;5034262;28;20057;-61
2021/09/01 07:32:26;;;;;;;33.90;19.30;;;;;;;16.30;77.24;102155.09;5015674;28;20046;-61
2021/09/01 07:34:53;;;;;;;34.38;18.45;;;;;;;16.37;77.41;102145.13;5030361;28;20056;-61
2021/09/01 07:37:21;;;;;;;28.55;19.38;;;;;;;16.30;79.55;102149.53;5018410;28;20050;-61
2021/09/01 07:39:48;;;;;;;32.10;18.95;;;;;;;16.54;78.93;102147.25;5033762;28;20064;-61
2021/09/01 07:42:15;;;;;;;33.33;20.55;;;;;;;16.48;76.69;102163.25;5024789;28;20056;-61
2021/09/01 07:44:43;;;;;;;33.47;19.52;;;;;;;16.61;76.66;102155.97;5014849;28;20060;-61
2021/09/01 07:47:10;;;;;;;32.85;18.35;;;;;;;16.45;76.81;102161.09;5017778;28;20465;-61
2021/09/01 07:49:38;;;;;;;33.08;18.90;;;;;;;16.54;76.55;102156.44;5016356;28;20052;-62
2021/09/01 07:52:05;;;;;;;29.13;18.35;;;;;;;16.64;76.19;102155.31;5032083;28;20057;-60
2021/09/01 07:54:33;;;;;;;28.20;18.60;;;;;;;16.65;75.80;102157.78;5036278;28;20076;-60
2021/09/01 07:57:01;;;;;;;30.88;18.77;;;;;;;16.63;76.01;102159.25;5032042;28;20362;-61
2021/09/01 07:59:28;;;;;;;30.67;18.60;;;;;;;16.82;75.63;102154.28;5019821;28;20050;-61
2021/09/01 08:01:58;;;;;;;32.22;18.98;;;;;;;16.61;75.26;102154.00;5031947;28;20513;-61
2021/09/01 08:04:26;;;;;;;29.35;19.10;;;;;;;16.43;76.20;102163.34;5036364;28;20053;-62
2021/09/01 08:06:54;;;;;;;32.35;19.45;;;;;;;16.49;75.86;102155.75;5032462;28;20065;-62
2021/09/01 08:09:22;;;;;;;26.85;17.55;;;;;;;16.57;76.59;102158.56;5035455;28;20049;-62
2021/09/01 08:11:49;;;;;;;32.28;18.67;;;;;;;16.86;75.33;102142.16;5018318;28;20060;-60
2021/09/01 08:14:16;;;;;;;30.88;19.60;;;;;;;16.88;74.80;102142.69;5036192;28;20037;-60
2021/09/01 08:16:44;;;;;;;27.10;17.63;;;;;;;16.84;74.94;102152.78;5024456;28;20050;-61
2021/09/01 08:19:11;;;;;;;31.20;18.15;;;;;;;17.10;74.16;102150.13;5015803;28;20145;-60
2021/09/01 08:21:38;;;;;;;28.58;18.75;;;;;;;17.27;73.68;102150.19;5016613;28;20050;-61
2021/09/01 08:24:06;;;;;;;35.60;17.02;;;;;;;17.45;72.39;102148.25;5015789;28;20046;-62
2021/09/01 08:26:33;;;;;;;28.13;18.00;;;;;;;17.33;72.35;102150.84;5029379;28;20049;-63
2021/09/01 08:29:00;;;;;;;27.75;18.05;;;;;;;17.37;72.10;102151.81;5031473;28;20045;-62
2021/09/01 08:31:27;;;;;;;26.60;18.92;;;;;;;17.24;72.29;102150.84;5032255;28;20167;-62
2021/09/01 08:33:54;;;;;;;34.72;19.45;;;;;;;17.14;72.75;102156.69;5030469;28;20046;-62
2021/09/01 08:36:22;;;;;;;31.52;18.90;;;;;;;17.39;72.57;102161.50;5032308;28;20054;-61
2021/09/01 08:38:49;;;;;;;31.20;20.55;;;;;;;17.51;71.67;102158.13;5033623;28;20049;-62
2021/09/01 08:41:18;;;;;;;33.30;20.05;;;;;;;17.39;71.91;102166.25;5040653;28;20045;-61
2021/09/01 08:43:48;;;;;;;29.83;19.60;;;;;;;17.31;72.21;102161.50;5029807;28;20045;-62
2021/09/01 08:46:15;;;;;;;31.95;21.15;;;;;;;17.28;72.34;102148.19;5024741;28;20057;-60
2021/09/01 08:48:42;;;;;;;29.02;20.80;;;;;;;17.39;72.01;102158.72;5027360;28;20045;-60
2021/09/01 08:51:10;;;;;;;36.00;19.80;;;;;;;17.42;71.33;102160.03;5024687;28;20497;-61
2021/09/01 08:53:38;;;;;;;24.90;18.50;;;;;;;17.52;71.11;102168.13;5026265;28;20050;-60
2021/09/01 08:56:05;;;;;;;28.80;19.38;;;;;;;17.49;71.49;102169.59;5015592;28;20046;-61
2021/09/01 08:58:33;;;;;;;31.67;19.63;;;;;;;17.48;71.50;102170.75;5017032;28;20045;-61
2021/09/01 09:01:00;;;;;;;30.65;18.10;;;;;;;17.57;71.06;102168.78;5020947;28;20053;-62
2021/09/01 09:03:31;;;;;;;25.50;18.45;;;;;;;17.68;70.53;102170.13;5031721;28;20060;-61
2021/09/01 09:06:04;;;;;;;29.98;18.15;;;;;;;17.59;70.51;102155.34;5032795;28;20057;-61
2021/09/01 09:08:32;;;;;;;29.88;18.10;;;;;;;17.62;70.95;102160.28;5020196;28;20052;-60
2021/09/01 09:11:00;;;;;;;27.73;18.63;;;;;;;17.69;70.51;102160.63;5023832;28;20061;-61
2021/09/01 09:13:30;;;;;;;25.80;17.58;;;;;;;17.84;69.96;102156.50;5035687;28;20052;-61
2021/09/01 09:16:03;;;;;;;31.70;18.08;;;;;;;17.87;69.52;102156.69;5031171;28;20057;-61
2021/09/01 09:18:31;;;;;;;32.97;18.77;;;;;;;17.79;69.72;102151.09;5023449;28;20045;-61
2021/09/01 09:21:19;;;;;;;32.97;18.35;;;;;;;17.86;69.85;102148.66;5014562;28;20486;-62
2021/09/01 09:23:51;;;;;;;30.90;18.80;;;;;;;17.88;69.48;102151.94;5027333;28;20056;-61
2021/09/01 09:26:29;;;;;;;33.08;19.50;;;;;;;17.85;69.43;102144.25;5033270;28;20508;-62
2021/09/01 09:29:14;;;;;;;29.35;17.63;;;;;;;17.83;69.60;102155.72;5025410;28;20060;-63
2021/09/01 09:31:46;;;;;;;30.77;18.00;;;;;;;17.98;69.43;102149.63;5038471;28;20045;-63
2021/09/01 09:34:18;;;;;;;28.40;18.85;;;;;;;17.87;69.44;102153.06;5035821;28;20054;-61
2021/09/01 09:37:05;;;;;;;30.63;17.75;;;;;;;17.79;69.51;102153.91;5026356;28;20050;-61
2021/09/01 09:39:56;;;;;;;29.30;16.58;;;;;;;17.81;69.53;102135.72;5025459;28;20045;-63
2021/09/01 09:42:38;;;;;;;29.83;16.45;;;;;;;18.03;69.21;102136.69;5030262;28;20049;-63
2021/09/01 09:45:21;;;;;;;22.60;15.63;;;;;;;18.34;68.16;102137.31;5033104;28;20041;-62
2021/09/01 09:47:56;;;;;;;25.48;15.30;;;;;;;18.36;67.63;102143.38;5052348;28;20057;-62
2021/09/01 09:50:23;;;;;;;27.70;15.32;;;;;;;18.27;68.25;102134.19;5039483;28;20052;-61
2021/09/01 09:52:51;;;;;;;28.65;15.75;;;;;;;18.41;66.97;102134.84;5027112;28;20156;-63
2021/09/01 09:55:21;;;;;;;26.33;14.90;;;;;;;18.55;66.86;102136.28;5013965;28;20414;-64
2021/09/01 09:57:53;;;;;;;28.13;15.43;;;;;;;18.63;66.66;102141.03;5014581;28;20064;-61
2021/09/01 10:00:22;;;;;;;26.38;15.95;;;;;;;18.92;65.99;102132.69;5017761;28;20405;-64
2021/09/01 10:02:49;;;;;;;20.85;14.27;;;;;;;19.12;64.67;102138.69;5018053;28;20049;-62
2021/09/01 10:05:28;;;;;;;27.38;14.70;;;;;;;19.10;64.39;102127.84;5015375;28;20046;-62
2021/09/01 10:07:57;;;;;;;28.75;16.40;;;;;;;19.12;63.68;102133.94;5022541;28;20049;-62
2021/09/01 10:10:25;;;;;;;24.92;15.63;;;;;;;19.01;64.42;102132.66;5028937;28;20049;-62
2021/09/01 10:12:52;;;;;;;23.05;14.90;;;;;;;19.16;64.14;102136.88;5037431;28;20048;-60
2021/09/01 10:15:23;;;;;;;27.17;14.52;;;;;;;18.80;64.67;102127.00;5034092;28;20037;-62
2021/09/01 10:17:52;;;;;;;24.10;13.50;;;;;;;19.08;63.91;102130.16;5043675;28;20052;-62
2021/09/01 10:20:21;;;;;;;20.75;14.02;;;;;;;18.96;64.01;102132.84;5031429;28;20044;-62
2021/09/01 10:23:07;;;;;;;23.95;15.23;;;;;;;19.08;64.09;102114.22;5031503;28;20060;-60
2021/09/01 10:25:51;;;;;;;22.88;15.05;;;;;;;19.13;63.43;102117.97;5037275;28;20052;-62
2021/09/01 10:28:21;;;;;;;25.10;14.27;;;;;;;18.97;63.82;102118.53;5028730;28;20052;-61
2021/09/01 10:31:22;;;;;;;27.48;13.45;;;;;;;19.05;63.71;102114.09;5032468;28;20484;-61
2021/09/01 10:33:52;;;;;;;23.60;14.02;;;;;;;19.01;63.63;102127.06;5036318;28;20416;-61
2021/09/01 10:36:22;;;;;;;26.70;13.32;;;;;;;19.08;63.85;102118.97;5031610;28;20041;-61
2021/09/01 10:39:12;;;;;;;22.90;13.77;;;;;;;19.05;62.82;102128.06;5031413;28;20053;-65
2021/09/01 10:41:39;;;;;;;;;;;;;;;19.19;63.30;102108.25;5014976;28;20088;-62
2021/09/01 10:44:13;;;;;;;19.85;12.68;;;;;;;19.30;62.53;102098.31;5030692;28;19921;-62
2021/09/01 10:46:52;;;;;;;22.45;13.10;;;;;;;19.44;61.63;102096.94;5020563;28;20525;-62
2021/09/01 10:49:25;;;;;;;22.23;13.10;;;;;;;19.51;60.87;102096.41;5024930;28;20065;-63
2021/09/01 10:51:55;;;;;;;20.75;13.18;;;;;;;19.56;61.09;102097.00;5033254;28;20070;-62
2021/09/01 10:54:33;;;;;;;21.70;12.65;;;;;;;19.55;61.34;102100.97;5022746;28;20536;-63
2021/09/01 10:57:06;;;;;;;20.35;12.88;;;;;;;19.62;61.04;102101.25;5014041;28;20072;-62
2021/09/01 10:59:37;;;;;;;20.30;12.45;;;;;;;19.74;60.61;102090.13;5033991;28;20057;-62
2021/09/01 11:02:05;;;;;;;23.10;12.75;;;;;;;19.81;60.10;102095.97;5035096;28;20060;-61
2021/09/01 11:04:32;;;;;;;24.83;12.77;;;;;;;19.73;60.25;102088.50;5024047;28;20069;-62
2021/09/01 11:07:04;;;;;;;20.48;13.25;;;;;;;19.56;61.11;102091.41;5017092;28;20061;-63
2021/09/01 11:09:31;;;;;;;22.50;12.85;;;;;;;19.48;60.93;102083.91;5018295;28;20053;-61
2021/09/01 11:11:59;;;;;;;20.70;12.10;;;;;;;19.40;61.16;102086.78;5018020;28;20533;-62
2021/09/01 11:14:30;;;;;;;19.83;11.60;;;;;;;19.62;60.99;102066.88;5040905;28;20500;-62
2021/09/01 11:16:58;;;;;;;22.85;12.02;;;;;;;19.68;59.91;102079.50;5019146;28;20141;-63